Rinchinlhumbe, Mongolia
Current Conditions -  °F | °C
As of 7:30 PM on Friday 19 Dec 2014 (Local Time) from UIII Reporting Station
Clear Clear  
Wind Chill:   Ceiling: Unl
Heat Index: 10°   Visibility: 6mi
Dew Point:   Wind: 4mph
Humidity: 85%   Direction: 180°S
Pressure: 30.48"   Gusts: NA
Location:  51.11°N, 99.67°E
Report Text: UIII 191130Z 18002MPS CAVOK M12/M14 Q1032 NOSIG RMK QFE728/097130850350
Loading
Personal Weather Stations






























Interactive Weather Map New forecast layout! Learn more

10-Day Weather Forecast

Advertisements
Track Severe Weather on mobile